Time;durP1;ratioP1;P1;durP2;ratioP2;P2;SDS_P1;SDS_P2;PMS_P1;PMS_P2;Temp;Humidity;BMP_temperature;BMP_pressure;BME280_temperature;BME280_humidity;BME280_pressure;Samples;Min_cycle;Max_cycle;Signal;HPM_P1;HPM_P2
2023/10/10 00:00:28;;;;;;;13.10;5.78;;;;;;;16.57;67.58;100450.06;5097778;28;20048;-52
2023/10/10 00:02:55;;;;;;;;;;;;;;;16.35;68.74;100440.06;5101330;28;20075;-51
2023/10/10 00:05:33;;;;;;;13.25;5.13;;;;;;;16.47;67.31;100451.16;5103165;28;20347;-46
2023/10/10 00:08:01;;;;;;;9.48;4.53;;;;;;;16.47;68.25;100443.31;5103779;28;20521;-54
2023/10/10 00:10:30;;;;;;;12.82;4.75;;;;;;;16.43;67.57;100432.94;5103318;28;20040;-46
2023/10/10 00:13:00;;;;;;;12.57;4.80;;;;;;;16.42;67.80;100436.44;5099752;28;20051;-48
2023/10/10 00:15:33;;;;;;;10.95;4.55;;;;;;;16.41;68.33;100447.78;5100353;28;20092;-47
2023/10/10 00:18:07;;;;;;;13.05;5.35;;;;;;;16.39;68.32;100449.59;5100307;28;20976;-48
2023/10/10 00:20:41;;;;;;;10.63;4.65;;;;;;;16.37;67.87;100451.34;5097428;28;20050;-48
2023/10/10 00:23:11;;;;;;;13.35;5.70;;;;;;;16.38;67.75;100447.84;5099197;28;20445;-49
2023/10/10 00:25:42;;;;;;;9.70;4.38;;;;;;;16.37;68.32;100448.75;5099549;28;20047;-46
2023/10/10 00:28:18;;;;;;;9.85;4.78;;;;;;;16.37;68.24;100440.91;5092406;28;20044;-48
2023/10/10 00:30:45;;;;;;;12.88;4.97;;;;;;;16.36;68.41;100447.03;5101355;28;20047;-51
2023/10/10 00:33:16;;;;;;;11.35;4.20;;;;;;;16.35;67.67;100441.84;5100567;28;20051;-48
2023/10/10 00:35:44;;;;;;;14.30;4.95;;;;;;;16.34;68.56;100443.56;5100298;28;20044;-48
2023/10/10 00:38:14;;;;;;;9.70;4.65;;;;;;;16.35;67.99;100447.06;5092205;28;20055;-49
2023/10/10 00:40:41;;;;;;;10.05;4.88;;;;;;;16.32;67.91;100429.69;5090682;28;20040;-47
2023/10/10 00:43:16;;;;;;;12.13;5.15;;;;;;;16.29;68.15;100435.84;5085779;28;20051;-50
2023/10/10 00:45:51;;;;;;;13.82;5.00;;;;;;;16.32;67.66;100434.91;5085761;28;20040;-46
2023/10/10 00:48:22;;;;;;;12.55;4.55;;;;;;;16.31;67.75;100439.28;5078372;28;20045;-49
2023/10/10 00:50:53;;;;;;;10.80;4.57;;;;;;;16.31;68.05;100443.63;5087875;28;20496;-48
2023/10/10 00:53:22;;;;;;;10.43;4.30;;;;;;;16.29;67.98;100434.97;5081093;28;20048;-47
2023/10/10 00:55:56;;;;;;;6.40;3.42;;;;;;;16.28;67.94;100439.31;5086319;28;20047;-46
2023/10/10 00:58:35;;;;;;;12.45;4.90;;;;;;;16.27;68.07;100429.78;5080990;28;20149;-45
2023/10/10 01:01:10;;;;;;;10.60;5.00;;;;;;;16.25;68.54;100428.94;5080927;28;20048;-50
2023/10/10 01:03:40;;;;;;;10.40;4.90;;;;;;;16.25;68.14;100417.63;5084548;28;20518;-48
2023/10/10 01:06:24;;;;;;;10.65;5.22;;;;;;;16.23;67.69;100409.81;5085137;28;20044;-47
2023/10/10 01:08:57;;;;;;;11.27;4.78;;;;;;;16.21;68.57;100402.91;5085005;28;20044;-46
2023/10/10 01:11:24;;;;;;;12.50;4.40;;;;;;;16.18;68.58;100398.63;5083920;28;20138;-48
2023/10/10 01:13:52;;;;;;;12.43;5.47;;;;;;;16.18;68.55;100396.00;5087144;28;20065;-46
2023/10/10 01:16:23;;;;;;;12.40;5.13;;;;;;;16.16;68.52;100401.25;5079769;28;20052;-51
2023/10/10 01:18:57;;;;;;;11.05;4.90;;;;;;;16.17;68.62;100396.88;5088480;28;20474;-48
2023/10/10 01:21:30;;;;;;;11.68;5.18;;;;;;;16.14;68.49;100389.97;5089182;28;20048;-49
2023/10/10 01:24:06;;;;;;;13.68;5.20;;;;;;;16.13;68.40;100393.47;5085868;28;20052;-49
2023/10/10 01:26:36;;;;;;;12.45;5.13;;;;;;;16.11;68.22;100379.56;5083260;28;20054;-47
2023/10/10 01:31:52;;;;;;;9.35;4.65;;;;;;;16.09;68.85;100381.38;5067044;28;20089;-48
2023/10/10 01:37:14;;;;;;;12.95;5.07;;;;;;;16.07;68.56;100372.69;5056880;28;20748;-46
2023/10/10 01:39:54;;;;;;;10.35;4.90;;;;;;;16.05;68.40;100374.47;5063470;28;20040;-48
2023/10/10 01:42:43;;;;;;;12.73;4.97;;;;;;;16.06;68.98;100370.97;5060502;28;20036;-49
2023/10/10 01:45:08;;;;;;;14.05;5.45;;;;;;;16.05;69.25;100364.03;5067774;28;20053;-49
2023/10/10 01:47:39;;;;;;;11.18;5.43;;;;;;;16.05;69.06;100369.25;5062053;28;20049;-49
2023/10/10 01:50:08;;;;;;;9.88;4.75;;;;;;;16.06;69.05;100382.28;5064329;28;20110;-48
2023/10/10 01:52:37;;;;;;;12.02;5.30;;;;;;;16.07;68.61;100367.47;5062644;28;20696;-47
2023/10/10 01:55:05;;;;;;;13.73;5.95;;;;;;;16.06;68.84;100365.75;5066005;28;20060;-50
2023/10/10 01:57:32;;;;;;;14.45;5.43;;;;;;;16.05;68.99;100364.88;5069096;28;20473;-46
2023/10/10 02:00:06;;;;;;;11.15;5.70;;;;;;;16.04;68.60;100362.28;5067230;28;20672;-47
2023/10/10 02:02:34;;;;;;;10.73;5.13;;;;;;;16.03;68.74;100365.81;5060138;28;20052;-49
2023/10/10 02:05:04;;;;;;;10.77;5.28;;;;;;;16.01;68.47;100365.00;5063156;28;20052;-47
2023/10/10 02:07:32;;;;;;;12.23;5.70;;;;;;;15.99;69.39;100358.94;5068741;28;20041;-48
2023/10/10 02:10:13;;;;;;;11.25;5.55;;;;;;;15.98;68.80;100346.75;5063436;28;20044;-46
2023/10/10 02:12:44;;;;;;;10.50;4.85;;;;;;;15.95;68.91;100347.69;5066453;28;20052;-49
2023/10/10 02:15:15;;;;;;;12.50;5.22;;;;;;;15.93;69.04;100350.31;5060001;28;20135;-47
2023/10/10 02:17:50;;;;;;;11.15;5.10;;;;;;;15.92;68.64;100351.19;5061467;28;20131;-45
2023/10/10 02:20:33;;;;;;;12.43;5.05;;;;;;;15.90;69.10;100334.69;5063467;28;20045;-50
2023/10/10 02:25:46;;;;;;;11.60;4.93;;;;;;;15.86;68.78;100327.81;5023486;28;20416;-50
2023/10/10 02:30:53;;;;;;;12.10;5.57;;;;;;;15.83;69.19;100327.84;5059197;28;20404;-44
2023/10/10 02:35:57;;;;;;;14.10;6.65;;;;;;;15.78;69.34;100324.50;5028421;27;20918;-46
2023/10/10 02:43:46;;;;;;;14.23;5.30;;;;;;;15.74;69.07;100317.59;5087772;27;20383;-45
2023/10/10 02:46:17;;;;;;;13.15;4.93;;;;;;;15.72;69.41;100319.38;5044104;28;20151;-46
2023/10/10 02:48:45;;;;;;;14.95;6.15;;;;;;;15.70;69.32;100319.41;5062806;28;20052;-47
2023/10/10 02:51:15;;;;;;;11.05;5.40;;;;;;;15.71;69.38;100317.66;5058076;28;20059;-47
2023/10/10 02:53:46;;;;;;;13.13;6.03;;;;;;;15.69;69.14;100312.47;5058198;28;20079;-47
2023/10/10 02:56:16;;;;;;;14.73;6.45;;;;;;;15.68;69.44;100314.22;5057585;28;20409;-48
2023/10/10 02:58:45;;;;;;;16.33;6.50;;;;;;;15.67;69.42;100312.50;5055044;28;20072;-46
2023/10/10 03:01:25;;;;;;;16.85;6.43;;;;;;;15.68;70.25;100303.75;5063463;28;20500;-48
2023/10/10 03:03:54;;;;;;;12.88;6.47;;;;;;;15.68;70.14;100316.81;5059691;28;20409;-48
2023/10/10 03:06:28;;;;;;;;;;;;;;;15.54;70.20;100311.03;5044546;28;20052;-51
2023/10/10 03:09:12;;;;;;;14.07;6.82;;;;;;;15.70;70.41;100310.72;5039469;28;19929;-47
2023/10/10 03:11:53;;;;;;;15.68;7.03;;;;;;;15.72;70.50;100301.09;5040726;28;20056;-47
2023/10/10 03:14:28;;;;;;;11.38;6.10;;;;;;;15.73;69.99;100292.38;5038963;28;20049;-48
2023/10/10 03:16:59;;;;;;;19.83;7.68;;;;;;;15.75;70.46;100303.66;5042156;28;20049;-48
2023/10/10 03:19:27;;;;;;;15.75;7.47;;;;;;;15.75;70.88;100294.09;5041803;28;20053;-49
2023/10/10 03:22:20;;;;;;;20.70;10.05;;;;;;;15.76;71.08;100294.91;5041390;28;20453;-50
2023/10/10 03:30:17;;;;;;;15.95;7.60;;;;;;;15.72;70.63;100299.34;5041268;28;20501;-47
2023/10/10 03:33:08;;;;;;;15.45;6.80;;;;;;;15.73;71.19;100297.59;5038741;28;20048;-47
2023/10/10 03:35:51;;;;;;;17.75;7.25;;;;;;;15.72;71.34;100294.13;5066173;28;20055;-47
2023/10/10 05:23:50;;;;;;;18.08;7.47;;;;;;;15.16;72.12;100264.72;4995464;28;20121;-48
2023/10/10 05:26:19;;;;;;;17.65;7.20;;;;;;;15.14;71.93;100256.06;4998707;28;20053;-46
2023/10/10 05:28:46;;;;;;;19.73;9.82;;;;;;;15.14;72.07;100255.22;5002711;28;20053;-50
2023/10/10 05:31:18;;;;;;;21.25;8.18;;;;;;;15.13;72.21;100263.94;4995927;28;20046;-46
2023/10/10 05:33:47;;;;;;;17.02;7.28;;;;;;;15.12;71.93;100251.78;4994056;28;20407;-48
2023/10/10 05:36:14;;;;;;;17.98;8.93;;;;;;;15.10;72.35;100248.34;4999590;28;20056;-48
2023/10/10 05:38:41;;;;;;;18.77;8.07;;;;;;;15.08;72.13;100240.53;4999042;28;20042;-47
2023/10/10 05:41:12;;;;;;;17.75;7.82;;;;;;;15.08;72.28;100239.66;4998619;28;20447;-46
2023/10/10 05:43:39;;;;;;;18.67;8.13;;;;;;;15.07;72.37;100233.63;5003253;28;20058;-45
2023/10/10 05:46:08;;;;;;;17.30;7.82;;;;;;;15.09;72.31;100236.16;4994759;28;20053;-46
2023/10/10 05:48:36;;;;;;;17.75;7.63;;;;;;;15.09;72.79;100230.94;5001368;28;20046;-45
2023/10/10 05:51:04;;;;;;;17.63;8.45;;;;;;;15.09;72.77;100231.81;5000034;28;20049;-47
2023/10/10 05:53:33;;;;;;;21.85;8.45;;;;;;;15.10;72.59;100230.91;5001057;28;20668;-44
2023/10/10 05:56:12;;;;;;;16.35;7.07;;;;;;;15.11;72.72;100224.84;4993941;28;20054;-47
2023/10/10 05:58:42;;;;;;;16.95;8.10;;;;;;;15.13;72.90;100225.66;4998342;28;20050;-47
2023/10/10 06:01:13;;;;;;;19.95;8.48;;;;;;;15.14;72.59;100219.53;5002034;28;20526;-48
2023/10/10 06:03:42;;;;;;;15.50;7.85;;;;;;;15.15;73.00;100218.69;5000919;28;20046;-49
2023/10/10 06:06:12;;;;;;;18.75;8.68;;;;;;;15.18;72.81;100222.09;5000101;28;20057;-49
2023/10/10 06:08:42;;;;;;;18.25;7.60;;;;;;;15.18;72.55;100222.97;4995079;28;20128;-48
2023/10/10 06:11:10;;;;;;;16.23;8.00;;;;;;;15.19;72.35;100231.66;4995009;28;20050;-46
2023/10/10 06:13:40;;;;;;;17.70;7.90;;;;;;;15.19;73.07;100229.06;4999773;28;20049;-49
2023/10/10 06:16:08;;;;;;;20.00;8.77;;;;;;;15.19;73.38;100229.06;4999475;28;20061;-48
2023/10/10 06:18:35;;;;;;;18.75;8.77;;;;;;;15.18;72.74;100232.53;4997191;28;20058;-46
2023/10/10 06:21:05;;;;;;;20.15;8.48;;;;;;;15.18;73.14;100229.91;5001815;28;20054;-49
2023/10/10 06:23:36;;;;;;;17.95;8.07;;;;;;;15.17;73.36;100229.09;5000157;28;20042;-48
2023/10/10 06:26:06;;;;;;;18.50;7.63;;;;;;;15.16;73.54;100228.22;4996781;28;20078;-49
2023/10/10 06:28:44;;;;;;;17.40;8.70;;;;;;;15.18;72.74;100228.19;4996213;28;20129;-47
2023/10/10 06:31:19;;;;;;;19.63;9.45;;;;;;;15.19;73.28;100216.00;4995713;28;20049;-46
2023/10/10 06:33:50;;;;;;;18.75;8.68;;;;;;;15.20;72.86;100217.72;5000776;28;20042;-51
2023/10/10 06:36:25;;;;;;;18.45;8.52;;;;;;;15.21;73.51;100215.09;4994699;28;20558;-46
2023/10/10 06:41:42;;;;;;;20.98;10.77;;;;;;;15.23;72.98;100202.00;5041201;28;20398;-47
2023/10/10 06:44:13;;;;;;;24.27;10.75;;;;;;;15.28;73.28;100205.38;5014145;28;20107;-52
2023/10/10 06:46:41;;;;;;;20.75;10.27;;;;;;;15.32;73.83;100196.59;5019008;28;20072;-50
2023/10/10 06:49:12;;;;;;;20.42;11.18;;;;;;;15.34;73.80;100196.56;5013410;28;20155;-48
2023/10/10 06:51:39;;;;;;;17.10;7.93;;;;;;;15.36;73.74;100211.31;5010561;28;20756;-49
2023/10/10 06:56:44;;;;;;;19.58;8.32;;;;;;;15.40;73.20;100196.47;5006559;28;20976;-48
2023/10/10 06:59:20;;;;;;;17.33;7.55;;;;;;;15.44;73.28;100199.84;4996225;28;20047;-50
2023/10/10 07:01:48;;;;;;;;;;;;;;;15.30;73.85;100193.16;4991478;28;20117;-46
2023/10/10 07:04:16;;;;;;;14.77;6.53;;;;;;;15.44;73.16;100199.84;4991823;28;19948;-49
2023/10/10 07:06:45;;;;;;;19.90;7.13;;;;;;;15.48;73.32;100196.28;4990391;28;20137;-48
2023/10/10 07:09:15;;;;;;;15.90;7.22;;;;;;;15.54;73.09;100196.16;4991936;28;20129;-50
2023/10/10 07:11:42;;;;;;;16.50;7.13;;;;;;;15.59;73.51;100204.75;4989084;28;20503;-50
2023/10/10 07:14:10;;;;;;;17.50;6.93;;;;;;;15.66;73.24;100198.50;4991102;28;20050;-48
2023/10/10 07:16:42;;;;;;;15.80;6.50;;;;;;;15.74;72.90;100200.09;4993796;28;20093;-45
2023/10/10 07:19:19;;;;;;;13.68;6.97;;;;;;;15.82;73.00;100200.78;4992162;28;20112;-47
2023/10/10 07:21:47;;;;;;;15.40;6.63;;;;;;;15.90;73.27;100198.88;4985441;28;20514;-48
2023/10/10 07:24:15;;;;;;;14.68;6.28;;;;;;;16.00;72.84;100203.91;4989503;28;20514;-49
2023/10/10 07:26:45;;;;;;;12.82;6.13;;;;;;;16.05;72.44;100199.44;4998315;28;20046;-47
2023/10/10 07:29:30;;;;;;;14.20;6.40;;;;;;;16.10;72.81;100197.56;4997923;28;20053;-49
2023/10/10 07:32:07;;;;;;;13.95;6.32;;;;;;;16.14;72.43;100191.38;4999333;28;20137;-48
2023/10/10 07:34:39;;;;;;;;;;;;;;;16.05;72.38;100194.22;4998026;28;20523;-46
2023/10/10 07:37:08;;;;;;;12.75;5.85;;;;;;;16.18;72.19;100193.03;4999659;28;19940;-48
2023/10/10 07:39:36;;;;;;;12.70;5.95;;;;;;;16.21;71.74;100201.69;5000198;28;20061;-48
2023/10/10 07:42:08;;;;;;;15.25;6.25;;;;;;;16.24;72.27;100202.47;4994622;28;20050;-49
2023/10/10 07:44:36;;;;;;;11.93;5.75;;;;;;;16.27;72.10;100197.19;4997890;28;20058;-48
2023/10/10 07:47:25;;;;;;;13.38;5.30;;;;;;;16.31;72.43;100200.56;4998848;28;20406;-50
2023/10/10 07:49:50;;;;;;;14.95;6.55;;;;;;;16.36;71.62;100211.78;4999636;28;20050;-47
2023/10/10 07:52:20;;;;;;;16.95;7.10;;;;;;;16.41;71.39;100212.53;4999267;28;20124;-47
2023/10/10 07:54:51;;;;;;;19.02;7.50;;;;;;;16.49;71.89;100221.94;5003366;28;20108;-49
2023/10/10 07:57:22;;;;;;;17.40;7.35;;;;;;;16.59;71.57;100226.03;5003126;28;20438;-45
2023/10/10 07:59:55;;;;;;;15.30;7.22;;;;;;;16.72;71.40;100221.34;4998438;28;20054;-49
2023/10/10 08:05:11;;;;;;;13.77;6.82;;;;;;;18.06;70.30;100219.38;5026144;28;20396;-48
2023/10/10 08:07:37;;;;;;;12.30;6.40;;;;;;;19.11;69.21;100219.47;5005119;28;20077;-47
2023/10/10 08:10:29;;;;;;;12.55;6.30;;;;;;;20.16;67.65;100209.44;4997083;28;20056;-52
2023/10/10 08:12:52;;;;;;;16.45;6.53;;;;;;;21.34;65.75;100212.47;4996874;28;20368;-48
2023/10/10 08:15:19;;;;;;;14.85;6.57;;;;;;;22.16;63.90;100210.44;4997891;28;20627;-48
2023/10/10 08:17:52;;;;;;;14.07;7.28;;;;;;;22.67;62.61;100209.72;5003014;28;20054;-49
2023/10/10 08:22:59;;;;;;;13.63;7.30;;;;;;;23.99;59.31;100212.44;5079570;27;20400;-47
2023/10/10 08:25:26;;;;;;;15.40;6.28;;;;;;;24.64;58.57;100211.38;5056270;28;20049;-50
2023/10/10 08:27:55;;;;;;;12.45;5.88;;;;;;;25.11;57.02;100216.56;5053150;28;20052;-47
2023/10/10 08:30:25;;;;;;;14.52;6.90;;;;;;;25.23;55.91;100214.09;5058821;28;20417;-50
2023/10/10 08:32:54;;;;;;;17.20;6.93;;;;;;;24.99;55.47;100219.97;5051032;28;20148;-47
2023/10/10 08:35:23;;;;;;;15.63;7.20;;;;;;;24.68;55.65;100221.78;5051539;28;20432;-50
2023/10/10 08:37:50;;;;;;;14.15;6.05;;;;;;;24.23;56.35;100217.28;5053132;28;20071;-52
2023/10/10 08:40:21;;;;;;;11.43;6.68;;;;;;;23.90;56.80;100218.22;5056573;28;20063;-48
2023/10/10 08:42:50;;;;;;;11.00;5.47;;;;;;;23.61;56.80;100211.84;5053611;28;20049;-49
2023/10/10 08:45:25;;;;;;;12.07;6.53;;;;;;;23.35;56.95;100211.50;5055706;28;20053;-48
2023/10/10 08:48:01;;;;;;;20.30;7.60;;;;;;;22.94;57.18;100206.59;5059593;28;20440;-50
2023/10/10 08:50:32;;;;;;;14.80;7.57;;;;;;;22.60;58.10;100204.75;5049273;28;20067;-49
2023/10/10 08:53:00;;;;;;;15.57;6.90;;;;;;;22.51;59.42;100205.19;5048687;28;20056;-52
2023/10/10 08:55:28;;;;;;;13.38;6.80;;;;;;;22.87;59.22;100205.19;5054429;28;20132;-49
2023/10/10 08:57:55;;;;;;;15.35;6.95;;;;;;;23.43;58.64;100207.56;5046425;28;20053;-48
2023/10/10 09:00:27;;;;;;;15.88;7.22;;;;;;;24.20;58.21;100201.59;5051612;28;20787;-50
2023/10/10 09:02:55;;;;;;;15.57;7.78;;;;;;;24.90;56.83;100211.63;5049176;28;20577;-47
2023/10/10 09:05:24;;;;;;;15.30;8.07;;;;;;;25.65;55.36;100195.59;5062071;28;20052;-48
2023/10/10 09:07:53;;;;;;;12.98;6.82;;;;;;;26.38;54.51;100193.53;5073983;28;20052;-48
2023/10/10 09:10:28;;;;;;;10.65;6.13;;;;;;;27.11;52.33;100179.78;5075689;27;20101;-46
2023/10/10 09:12:58;;;;;;;11.70;6.20;;;;;;;27.63;51.89;100179.72;5074873;28;20052;-48
2023/10/10 09:15:25;;;;;;;14.07;6.68;;;;;;;28.21;50.53;100179.00;5073977;28;20044;-49
2023/10/10 09:17:55;;;;;;;11.73;6.30;;;;;;;28.56;49.75;100171.09;5075186;28;20048;-48
2023/10/10 09:20:27;;;;;;;11.52;5.65;;;;;;;28.92;49.32;100171.91;5076571;28;20040;-46
2023/10/10 09:23:02;;;;;;;12.55;6.25;;;;;;;29.27;48.26;100175.41;5078029;28;20064;-46
2023/10/10 09:25:41;;;;;;;8.50;5.40;;;;;;;29.70;47.69;100165.78;5081399;28;20048;-47
2023/10/10 09:28:10;;;;;;;9.50;5.05;;;;;;;29.92;46.69;100163.16;5072387;27;20151;-47
2023/10/10 09:30:45;;;;;;;11.55;5.53;;;;;;;30.04;46.00;100156.78;5095157;28;20044;-51
2023/10/10 09:33:22;;;;;;;14.13;5.57;;;;;;;30.19;45.35;100161.84;5079820;28;20067;-47
2023/10/10 09:36:04;;;;;;;11.13;5.07;;;;;;;30.44;45.80;100173.09;5080243;28;20061;-50
2023/10/10 09:38:35;;;;;;;10.75;5.55;;;;;;;30.60;45.14;100167.28;5086087;28;20047;-49
2023/10/10 09:44:30;;;;;;;11.75;5.18;;;;;;;31.01;44.38;100170.03;5075470;28;20117;-48
2023/10/10 09:49:35;;;;;;;9.02;5.30;;;;;;;31.40;43.47;100163.97;5056695;27;20402;-48
2023/10/10 09:54:49;;;;;;;10.43;4.95;;;;;;;31.43;42.83;100158.34;5049706;28;20570;-47
2023/10/10 09:57:17;;;;;;;11.18;5.03;;;;;;;31.38;43.07;100160.63;5023772;28;20056;-49
2023/10/10 09:59:48;;;;;;;12.13;5.28;;;;;;;31.34;42.73;100161.88;5022228;28;20045;-48
2023/10/10 10:02:40;;;;;;;9.93;5.47;;;;;;;31.29;42.37;100156.88;5025091;28;20049;-46
2023/10/10 10:05:14;;;;;;;9.07;5.22;;;;;;;31.26;42.42;100163.38;5016560;28;20088;-50
2023/10/10 10:10:49;;;;;;;9.52;6.25;;;;;;;31.08;42.73;100160.50;5067125;27;20382;-50
2023/10/10 10:13:33;;;;;;;8.68;6.28;;;;;;;30.96;42.43;100157.06;5019439;28;20049;-51
2023/10/10 10:16:44;;;;;;;9.77;6.10;;;;;;;30.73;42.90;100154.56;5037786;28;20050;-48
2023/10/10 10:22:07;;;;;;;8.35;4.43;;;;;;;30.32;43.04;100148.28;5052271;28;20402;-49
2023/10/10 10:24:52;;;;;;;7.50;4.70;;;;;;;30.09;42.98;100141.19;5037062;28;20049;-52
2023/10/10 10:27:31;;;;;;;8.63;4.60;;;;;;;29.87;43.45;100140.34;5033297;28;20064;-49
2023/10/10 10:30:50;;;;;;;13.65;5.38;;;;;;;29.61;43.33;100139.81;5046777;28;20139;-51
2023/10/10 10:32:54;;;;;;;8.45;4.80;;;;;;;29.30;43.88;100139.63;5024584;28;20153;-47
2023/10/10 10:35:22;;;;;;;8.07;4.60;;;;;;;28.98;44.00;100134.09;5031180;28;20041;-47
2023/10/10 10:37:59;;;;;;;7.55;4.18;;;;;;;28.70;43.15;100141.56;5036440;28;20041;-48
2023/10/10 10:40:46;;;;;;;11.25;5.00;;;;;;;28.36;44.29;100138.88;5032555;28;20502;-48
2023/10/10 10:43:20;;;;;;;12.02;4.65;;;;;;;28.00;45.01;100132.69;5035832;28;20059;-47
2023/10/10 10:46:07;;;;;;;10.30;4.85;;;;;;;27.89;45.26;100139.66;5032685;28;20048;-47
2023/10/10 10:48:35;;;;;;;8.20;4.95;;;;;;;27.77;45.24;100137.91;5035104;28;20132;-49
2023/10/10 10:53:50;;;;;;;8.27;4.90;;;;;;;27.46;45.96;100130.38;5033879;27;20405;-49
2023/10/10 11:01:34;;;;;;;7.93;5.20;;;;;;;27.28;46.30;100129.88;5044282;27;20911;-47
2023/10/10 11:04:05;;;;;;;9.00;5.50;;;;;;;27.13;46.68;100127.38;5022156;28;20042;-51
2023/10/10 11:06:32;;;;;;;9.60;5.85;;;;;;;27.10;46.58;100130.25;5012326;28;20050;-50
2023/10/10 11:09:23;;;;;;;13.63;6.78;;;;;;;27.08;46.27;100122.38;5019854;28;20583;-52
2023/10/10 11:11:45;;;;;;;11.90;6.38;;;;;;;26.93;46.73;100116.34;5017357;28;20046;-54
2023/10/10 11:16:56;;;;;;;12.68;9.18;;;;;;;26.90;47.29;100113.88;5023343;28;20438;-47
2023/10/10 11:22:14;;;;;;;13.77;8.20;;;;;;;26.80;47.67;100112.84;5079425;27;20402;-48
2023/10/10 11:24:47;;;;;;;13.02;7.57;;;;;;;26.66;47.32;100106.69;5011827;28;20053;-51
2023/10/10 11:27:14;;;;;;;16.55;8.40;;;;;;;26.62;47.87;100115.84;5019471;28;20049;-49
2023/10/10 11:29:47;;;;;;;15.27;8.45;;;;;;;26.54;47.82;100107.53;5024034;28;20041;-48
2023/10/10 11:32:23;;;;;;;14.80;7.65;;;;;;;26.40;47.94;100111.13;5016823;28;20068;-52
2023/10/10 11:35:11;;;;;;;16.33;8.55;;;;;;;26.30;48.67;100103.81;5006241;28;20073;-55
2023/10/10 11:37:42;;;;;;;16.15;8.63;;;;;;;26.31;48.84;100108.16;5020880;28;20053;-52
2023/10/10 11:40:31;;;;;;;15.48;7.97;;;;;;;26.30;49.05;100106.47;5022984;28;20050;-50
2023/10/10 11:43:03;;;;;;;17.63;8.60;;;;;;;26.22;49.21;100105.25;5018455;28;20052;-52
2023/10/10 11:45:38;;;;;;;16.77;8.35;;;;;;;26.17;49.38;100105.56;5003598;28;20136;-47
2023/10/10 11:48:13;;;;;;;15.15;8.23;;;;;;;26.10;49.41;100094.50;5019450;28;20049;-49
2023/10/10 11:50:56;;;;;;;18.77;8.73;;;;;;;25.83;49.07;100092.75;5015108;28;20049;-47
2023/10/10 11:53:24;;;;;;;18.73;7.88;;;;;;;25.70;49.89;100086.59;5021267;28;20050;-47
2023/10/10 11:55:52;;;;;;;18.15;8.13;;;;;;;25.62;49.42;100085.28;5020429;28;20096;-50
2023/10/10 11:58:19;;;;;;;17.95;8.90;;;;;;;25.49;49.64;100089.66;5024969;28;20052;-48
2023/10/10 12:06:14;;;;;;;17.10;8.18;;;;;;;25.18;50.23;100081.03;5015430;27;20409;-46
2023/10/10 12:08:46;;;;;;;19.67;9.38;;;;;;;25.08;50.90;100081.63;5016545;28;20042;-48
2023/10/10 12:11:15;;;;;;;15.48;8.13;;;;;;;25.05;50.86;100076.50;4995380;28;20053;-52
2023/10/10 12:13:44;;;;;;;19.30;8.77;;;;;;;25.00;50.68;100074.16;5010449;28;20124;-48
2023/10/10 12:16:10;;;;;;;15.88;8.13;;;;;;;24.94;50.75;100073.69;5013189;28;20042;-46
2023/10/10 12:18:54;;;;;;;16.77;7.72;;;;;;;24.90;50.96;100063.28;5016878;28;20146;-48
2023/10/10 12:21:22;;;;;;;16.23;7.57;;;;;;;24.87;51.20;100067.94;5007692;28;20128;-48
2023/10/10 12:23:54;;;;;;;18.08;8.27;;;;;;;24.86;51.06;100067.06;5013205;28;20053;-45
2023/10/10 12:26:27;;;;;;;16.27;7.38;;;;;;;24.80;51.04;100051.56;5011729;28;20136;-48
2023/10/10 12:28:54;;;;;;;15.00;8.98;;;;;;;24.67;51.16;100047.94;5013216;28;20606;-45
2023/10/10 12:31:22;;;;;;;19.00;7.30;;;;;;;24.54;50.94;100056.66;5008793;28;20057;-48
2023/10/10 12:33:49;;;;;;;15.05;6.60;;;;;;;24.44;51.32;100039.63;5011749;28;20453;-46
2023/10/10 12:36:17;;;;;;;15.32;7.28;;;;;;;24.35;52.07;100047.19;5016936;28;20049;-49
2023/10/10 12:38:44;;;;;;;15.88;6.72;;;;;;;24.35;51.36;100043.72;5012305;28;20050;-45
2023/10/10 12:41:12;;;;;;;14.43;7.25;;;;;;;24.28;51.36;100039.75;5016307;28;21299;-47
2023/10/10 12:43:39;;;;;;;19.83;7.63;;;;;;;24.22;51.81;100040.97;5013833;28;20109;-47
2023/10/10 12:46:07;;;;;;;16.08;7.88;;;;;;;24.15;52.18;100034.34;5020451;28;20049;-51
2023/10/10 12:48:42;;;;;;;15.85;7.53;;;;;;;24.20;51.90;100027.81;5015161;28;20049;-49
2023/10/10 12:51:10;;;;;;;14.88;6.93;;;;;;;24.18;52.21;100028.88;5014127;28;20525;-50
2023/10/10 12:53:42;;;;;;;15.77;7.95;;;;;;;24.09;52.36;100030.22;5011738;28;20046;-49
2023/10/10 12:56:16;;;;;;;12.15;6.82;;;;;;;24.03;52.34;100020.00;5016713;28;20053;-52
2023/10/10 12:58:51;;;;;;;13.85;6.30;;;;;;;23.96;52.79;100027.47;5010293;28;20127;-47
2023/10/10 13:01:23;;;;;;;15.02;6.30;;;;;;;23.88;52.04;100022.63;5017071;28;20065;-47
2023/10/10 13:03:50;;;;;;;13.05;5.70;;;;;;;23.78;52.01;100017.03;5006046;28;20983;-47
2023/10/10 13:06:18;;;;;;;12.82;6.38;;;;;;;23.68;52.38;100018.50;5014863;28;20104;-45
2023/10/10 13:08:49;;;;;;;13.38;6.43;;;;;;;23.65;52.86;100016.03;5008162;28;20176;-45
2023/10/10 13:11:20;;;;;;;13.60;6.30;;;;;;;23.64;52.77;100014.34;5015300;28;20095;-45
2023/10/10 13:13:51;;;;;;;13.55;4.78;;;;;;;23.62;52.65;100017.94;5009223;28;20050;-48
2023/10/10 13:19:06;;;;;;;9.20;5.30;;;;;;;23.65;52.54;100010.75;4987893;28;20058;-47
2023/10/10 13:21:36;;;;;;;12.07;4.47;;;;;;;23.69;51.72;100012.28;4995101;28;20065;-48
2023/10/10 13:24:09;;;;;;;10.75;5.13;;;;;;;23.68;52.51;100008.81;5005453;28;20050;-47
2023/10/10 13:26:36;;;;;;;10.52;5.30;;;;;;;23.68;52.70;100000.88;4998608;28;20130;-47
2023/10/10 13:29:03;;;;;;;15.77;5.80;;;;;;;23.63;52.08;100010.84;5000236;28;20057;-50
2023/10/10 13:31:30;;;;;;;11.48;5.75;;;;;;;23.61;52.69;100004.81;5001338;28;20050;-45
2023/10/10 13:33:57;;;;;;;9.98;5.90;;;;;;;23.61;52.63;100000.34;4994691;28;20129;-49
2023/10/10 13:36:25;;;;;;;11.00;5.45;;;;;;;23.59;53.07;99993.47;4995844;28;20514;-49
2023/10/10 13:38:57;;;;;;;12.68;6.30;;;;;;;23.57;53.22;99993.56;5002111;28;20046;-46
2023/10/10 13:41:29;;;;;;;12.20;6.00;;;;;;;23.51;53.46;99993.94;4997694;28;20054;-47
2023/10/10 13:43:59;;;;;;;13.48;6.60;;;;;;;23.45;54.07;100008.34;5000583;28;20046;-51
2023/10/10 13:46:28;;;;;;;11.65;6.95;;;;;;;23.44;53.82;100003.16;5002613;28;20531;-47
2023/10/10 13:48:55;;;;;;;14.05;7.55;;;;;;;23.39;54.21;100007.81;5001595;28;20053;-49
2023/10/10 13:51:22;;;;;;;15.90;7.55;;;;;;;23.30;54.23;100002.09;4991753;28;20061;-54
2023/10/10 13:53:49;;;;;;;16.10;7.78;;;;;;;23.24;54.75;100005.13;5000808;28;20081;-49
2023/10/10 13:56:16;;;;;;;18.17;8.13;;;;;;;23.17;54.69;100001.94;4999361;28;20092;-47
2023/10/10 13:58:47;;;;;;;16.38;7.50;;;;;;;23.11;55.49;99997.03;5000507;28;20129;-48
2023/10/10 14:01:18;;;;;;;14.95;7.38;;;;;;;23.10;55.46;99993.53;4995182;28;20056;-49
2023/10/10 14:03:48;;;;;;;18.42;7.22;;;;;;;23.10;55.63;100006.72;4994423;28;20050;-49
2023/10/10 14:06:19;;;;;;;14.90;7.07;;;;;;;23.07;55.28;100006.91;5006067;28;20042;-49
2023/10/10 14:08:47;;;;;;;12.90;6.90;;;;;;;23.06;55.72;100004.34;4996562;28;20054;-48
2023/10/10 14:11:23;;;;;;;15.35;7.68;;;;;;;23.01;55.46;100007.25;4994421;28;20073;-48
2023/10/10 14:13:52;;;;;;;14.02;7.00;;;;;;;22.92;55.95;99999.81;4999135;28;20049;-45
2023/10/10 14:16:20;;;;;;;12.20;6.13;;;;;;;22.85;55.46;99976.41;4995309;28;20120;-50
2023/10/10 14:18:51;;;;;;;12.13;6.40;;;;;;;22.76;55.90;99982.19;4993087;28;20074;-46
2023/10/10 14:21:25;;;;;;;14.75;6.30;;;;;;;22.67;56.06;99980.06;4994902;28;20511;-48
2023/10/10 14:24:04;;;;;;;11.27;5.85;;;;;;;22.58;56.15;99977.00;4996471;28;20092;-50
2023/10/10 14:26:34;;;;;;;12.30;5.93;;;;;;;22.53;55.69;99967.59;4990911;28;20064;-47
2023/10/10 14:29:08;;;;;;;11.52;5.18;;;;;;;22.50;55.54;99965.97;4995471;28;20081;-51
2023/10/10 14:31:42;;;;;;;10.95;5.57;;;;;;;22.51;56.26;99972.97;4995949;28;20664;-50
2023/10/10 14:34:19;;;;;;;12.60;5.57;;;;;;;22.50;55.85;99971.25;4995568;28;20045;-51
2023/10/10 14:36:51;;;;;;;10.70;5.63;;;;;;;22.45;55.87;99962.72;4999300;28;20073;-50